sensor_id;sensor_type;location;lat;lon;timestamp;pressure;altitude;pressure_sealevel;temperature;humidity
52923;BME280;38796;42.702;23.306;2023-01-30T00:00:53;95552.63;;;-1.62;92.28
52923;BME280;38796;42.702;23.306;2023-01-30T00:02:52;95554.59;;;-1.70;92.79
52923;BME280;38796;42.702;23.306;2023-01-30T00:04:50;95544.88;;;-1.62;92.00
52923;BME280;38796;42.702;23.306;2023-01-30T00:06:49;95542.28;;;-1.62;92.40
52923;BME280;38796;42.702;23.306;2023-01-30T00:08:47;95535.31;;;-1.60;92.63
52923;BME280;38796;42.702;23.306;2023-01-30T00:10:46;95533.53;;;-1.58;91.91
52923;BME280;38796;42.702;23.306;2023-01-30T00:12:44;95544.69;;;-1.57;92.49
52923;BME280;38796;42.702;23.306;2023-01-30T00:14:42;95543.84;;;-1.58;92.56
52923;BME280;38796;42.702;23.306;2023-01-30T00:16:42;95542.28;;;-1.62;92.67
52923;BME280;38796;42.702;23.306;2023-01-30T00:18:41;95548.50;;;-1.67;92.42
52923;BME280;38796;42.702;23.306;2023-01-30T00:20:39;95543.59;;;-1.75;92.63
52923;BME280;38796;42.702;23.306;2023-01-30T00:22:37;95551.16;;;-1.69;93.08
52923;BME280;38796;42.702;23.306;2023-01-30T00:24:48;95557.34;;;-1.75;93.18
52923;BME280;38796;42.702;23.306;2023-01-30T00:26:46;95541.13;;;-1.78;93.57
52923;BME280;38796;42.702;23.306;2023-01-30T00:28:45;95545.34;;;-1.76;94.01
52923;BME280;38796;42.702;23.306;2023-01-30T00:30:43;95541.19;;;-1.80;93.73
52923;BME280;38796;42.702;23.306;2023-01-30T00:32:43;95538.50;;;-1.77;93.67
52923;BME280;38796;42.702;23.306;2023-01-30T00:34:44;95538.25;;;-1.69;93.33
52923;BME280;38796;42.702;23.306;2023-01-30T00:36:44;95533.75;;;-1.64;92.88
52923;BME280;38796;42.702;23.306;2023-01-30T00:38:56;95537.44;;;-1.71;92.53
52923;BME280;38796;42.702;23.306;2023-01-30T00:40:55;95534.06;;;-1.73;92.76
52923;BME280;38796;42.702;23.306;2023-01-30T00:42:54;95530.81;;;-1.78;92.96
52923;BME280;38796;42.702;23.306;2023-01-30T00:45:24;95531.19;;;-1.89;93.73
52923;BME280;38796;42.702;23.306;2023-01-30T00:47:47;95522.38;;;-1.83;93.20
52923;BME280;38796;42.702;23.306;2023-01-30T00:49:46;95535.13;;;-1.79;93.28
52923;BME280;38796;42.702;23.306;2023-01-30T00:51:45;95530.03;;;-1.80;93.37
52923;BME280;38796;42.702;23.306;2023-01-30T00:53:43;95521.66;;;-1.87;92.99
52923;BME280;38796;42.702;23.306;2023-01-30T00:55:43;95524.50;;;-1.95;93.70
52923;BME280;38796;42.702;23.306;2023-01-30T00:57:43;95523.63;;;-1.95;94.29
52923;BME280;38796;42.702;23.306;2023-01-30T00:59:41;95521.06;;;-1.95;94.13
52923;BME280;38796;42.702;23.306;2023-01-30T01:01:40;95524.59;;;-1.98;93.81
52923;BME280;38796;42.702;23.306;2023-01-30T01:03:40;95516.97;;;-2.01;94.40
52923;BME280;38796;42.702;23.306;2023-01-30T01:05:38;95522.91;;;-1.99;94.97
52923;BME280;38796;42.702;23.306;2023-01-30T01:07:36;95524.06;;;-2.07;94.25
52923;BME280;38796;42.702;23.306;2023-01-30T01:09:35;95521.38;;;-2.04;95.67
52923;BME280;38796;42.702;23.306;2023-01-30T01:11:34;95529.13;;;-2.04;95.10
52923;BME280;38796;42.702;23.306;2023-01-30T01:13:33;95512.81;;;-2.05;94.91
52923;BME280;38796;42.702;23.306;2023-01-30T01:15:32;95511.00;;;-2.03;94.33
52923;BME280;38796;42.702;23.306;2023-01-30T01:17:31;95512.66;;;-2.00;94.71
52923;BME280;38796;42.702;23.306;2023-01-30T01:19:30;95521.28;;;-2.01;95.00
52923;BME280;38796;42.702;23.306;2023-01-30T01:21:29;95514.69;;;-2.10;93.76
52923;BME280;38796;42.702;23.306;2023-01-30T01:23:27;95510.16;;;-2.03;95.09
52923;BME280;38796;42.702;23.306;2023-01-30T01:25:25;95509.16;;;-1.99;94.77
52923;BME280;38796;42.702;23.306;2023-01-30T01:27:24;95499.91;;;-2.05;94.99
52923;BME280;38796;42.702;23.306;2023-01-30T01:29:22;95509.53;;;-2.10;94.85
52923;BME280;38796;42.702;23.306;2023-01-30T01:31:20;95500.84;;;-2.07;94.56
52923;BME280;38796;42.702;23.306;2023-01-30T01:33:20;95501.69;;;-2.07;94.91
52923;BME280;38796;42.702;23.306;2023-01-30T01:35:20;95505.09;;;-2.06;94.67
52923;BME280;38796;42.702;23.306;2023-01-30T01:37:19;95499.91;;;-2.05;94.85
52923;BME280;38796;42.702;23.306;2023-01-30T01:39:17;95497.44;;;-2.08;94.71
52923;BME280;38796;42.702;23.306;2023-01-30T01:41:18;95505.22;;;-2.09;94.57
52923;BME280;38796;42.702;23.306;2023-01-30T01:43:16;95502.06;;;-2.18;95.11
52923;BME280;38796;42.702;23.306;2023-01-30T01:45:18;95498.53;;;-2.15;95.00
52923;BME280;38796;42.702;23.306;2023-01-30T01:47:17;95506.94;;;-2.10;95.39
52923;BME280;38796;42.702;23.306;2023-01-30T01:49:19;95505.94;;;-2.06;94.98
52923;BME280;38796;42.702;23.306;2023-01-30T01:51:25;95497.44;;;-2.08;95.09
52923;BME280;38796;42.702;23.306;2023-01-30T01:53:29;95497.63;;;-2.14;94.64
52923;BME280;38796;42.702;23.306;2023-01-30T01:55:30;95500.22;;;-2.14;94.88
52923;BME280;38796;42.702;23.306;2023-01-30T01:57:33;95503.69;;;-2.15;94.77
52923;BME280;38796;42.702;23.306;2023-01-30T01:59:34;95502.88;;;-2.17;94.95
52923;BME280;38796;42.702;23.306;2023-01-30T02:01:35;95502.88;;;-2.17;94.75
52923;BME280;38796;42.702;23.306;2023-01-30T02:03:35;95509.06;;;-2.21;94.89
52923;BME280;38796;42.702;23.306;2023-01-30T02:05:37;95503.88;;;-2.20;94.95
52923;BME280;38796;42.702;23.306;2023-01-30T02:07:44;95505.69;;;-2.23;94.74
52923;BME280;38796;42.702;23.306;2023-01-30T02:09:44;95498.09;;;-2.28;94.72
52923;BME280;38796;42.702;23.306;2023-01-30T02:11:46;95499.53;;;-2.19;95.36
52923;BME280;38796;42.702;23.306;2023-01-30T02:13:47;95498.69;;;-2.20;95.13
52923;BME280;38796;42.702;23.306;2023-01-30T02:15:50;95498.56;;;-2.17;94.97
52923;BME280;38796;42.702;23.306;2023-01-30T02:17:50;95500.31;;;-2.17;95.12
52923;BME280;38796;42.702;23.306;2023-01-30T02:19:52;95503.06;;;-2.22;94.19
52923;BME280;38796;42.702;23.306;2023-01-30T02:24:48;95495.38;;;-2.23;94.69
52923;BME280;38796;42.702;23.306;2023-01-30T02:29:35;95499.81;;;-2.27;94.76
52923;BME280;38796;42.702;23.306;2023-01-30T02:31:43;95508.31;;;-2.25;95.08
52923;BME280;38796;42.702;23.306;2023-01-30T02:33:56;95501.41;;;-2.24;95.43
52923;BME280;38796;42.702;23.306;2023-01-30T02:36:04;95501.41;;;-2.24;95.17
52923;BME280;38796;42.702;23.306;2023-01-30T02:38:16;95494.50;;;-2.24;94.93
52923;BME280;38796;42.702;23.306;2023-01-30T02:40:31;95491.06;;;-2.23;95.17
52923;BME280;38796;42.702;23.306;2023-01-30T02:42:37;95483.34;;;-2.24;94.82
52923;BME280;38796;42.702;23.306;2023-01-30T02:44:44;95489.31;;;-2.22;94.25
52923;BME280;38796;42.702;23.306;2023-01-30T02:46:52;95486.78;;;-2.24;94.82
52923;BME280;38796;42.702;23.306;2023-01-30T02:48:54;95487.66;;;-2.23;94.87
52923;BME280;38796;42.702;23.306;2023-01-30T02:50:57;95486.84;;;-2.25;94.67
52923;BME280;38796;42.702;23.306;2023-01-30T02:52:58;95492.63;;;-2.19;94.70
52923;BME280;38796;42.702;23.306;2023-01-30T02:54:56;95483.16;;;-2.18;94.64
52923;BME280;38796;42.702;23.306;2023-01-30T02:56:57;95487.41;;;-2.17;95.10
52923;BME280;38796;42.702;23.306;2023-01-30T02:59:02;95486.53;;;-2.16;94.88
52923;BME280;38796;42.702;23.306;2023-01-30T03:01:22;95488.25;;;-2.17;94.04
52923;BME280;38796;42.702;23.306;2023-01-30T03:03:32;95495.88;;;-2.13;94.32
52923;BME280;38796;42.702;23.306;2023-01-30T03:05:44;95494.13;;;-2.11;94.60
52923;BME280;38796;42.702;23.306;2023-01-30T03:07:57;95493.28;;;-2.12;93.60
52923;BME280;38796;42.702;23.306;2023-01-30T03:10:04;95487.38;;;-2.15;93.93
52923;BME280;38796;42.702;23.306;2023-01-30T03:12:15;95488.22;;;-2.15;93.78
52923;BME280;38796;42.702;23.306;2023-01-30T03:14:20;95480.31;;;-2.10;94.10
52923;BME280;38796;42.702;23.306;2023-01-30T03:16:25;95482.06;;;-2.11;93.88
52923;BME280;38796;42.702;23.306;2023-01-30T03:18:28;95476.88;;;-2.11;94.03
52923;BME280;38796;42.702;23.306;2023-01-30T03:20:27;95476.81;;;-2.09;94.24
52923;BME280;38796;42.702;23.306;2023-01-30T03:22:25;95471.66;;;-2.09;94.31
52923;BME280;38796;42.702;23.306;2023-01-30T03:24:25;95471.66;;;-2.09;93.90
52923;BME280;38796;42.702;23.306;2023-01-30T03:26:28;95468.25;;;-2.10;94.28
52923;BME280;38796;42.702;23.306;2023-01-30T03:28:29;95452.03;;;-2.13;94.25
52923;BME280;38796;42.702;23.306;2023-01-30T03:30:28;95453.94;;;-2.19;94.01
52923;BME280;38796;42.702;23.306;2023-01-30T03:32:34;95458.38;;;-2.22;94.66
52923;BME280;38796;42.702;23.306;2023-01-30T03:34:34;95446.97;;;-2.17;94.51
52923;BME280;38796;42.702;23.306;2023-01-30T03:36:33;95439.97;;;-2.13;94.37
52923;BME280;38796;42.702;23.306;2023-01-30T03:38:33;95451.16;;;-2.12;94.03
52923;BME280;38796;42.702;23.306;2023-01-30T03:40:32;95447.66;;;-2.11;93.84
52923;BME280;38796;42.702;23.306;2023-01-30T03:42:31;95452.00;;;-2.12;94.12
52923;BME280;38796;42.702;23.306;2023-01-30T03:44:31;95454.56;;;-2.12;93.82
52923;BME280;38796;42.702;23.306;2023-01-30T03:46:30;95441.97;;;-2.21;93.33
52923;BME280;38796;42.702;23.306;2023-01-30T03:48:28;95438.38;;;-2.15;93.94
52923;BME280;38796;42.702;23.306;2023-01-30T03:50:28;95446.13;;;-2.17;93.76
52923;BME280;38796;42.702;23.306;2023-01-30T03:52:26;95444.47;;;-2.18;93.83
52923;BME280;38796;42.702;23.306;2023-01-30T03:54:24;95446.03;;;-2.14;93.65
52923;BME280;38796;42.702;23.306;2023-01-30T03:56:23;95442.69;;;-2.16;93.55
52923;BME280;38796;42.702;23.306;2023-01-30T03:58:22;95444.47;;;-2.18;93.38
52923;BME280;38796;42.702;23.306;2023-01-30T04:00:21;95434.94;;;-2.16;93.25
52923;BME280;38796;42.702;23.306;2023-01-30T04:02:19;95438.25;;;-2.12;93.39
52923;BME280;38796;42.702;23.306;2023-01-30T04:04:19;95440.25;;;-2.21;92.87
52923;BME280;38796;42.702;23.306;2023-01-30T04:06:19;95434.34;;;-2.24;93.24
52923;BME280;38796;42.702;23.306;2023-01-30T04:08:18;95436.88;;;-2.23;93.44
52923;BME280;38796;42.702;23.306;2023-01-30T04:10:17;95438.63;;;-2.23;93.37
52923;BME280;38796;42.702;23.306;2023-01-30T04:12:16;95438.63;;;-2.23;93.01
52923;BME280;38796;42.702;23.306;2023-01-30T04:14:21;95438.56;;;-2.22;93.35
52923;BME280;38796;42.702;23.306;2023-01-30T04:16:39;95435.16;;;-2.22;93.47
52923;BME280;38796;42.702;23.306;2023-01-30T04:19:13;95441.25;;;-2.25;93.04
52923;BME280;38796;42.702;23.306;2023-01-30T04:21:12;95439.56;;;-2.26;93.51
52923;BME280;38796;42.702;23.306;2023-01-30T04:23:12;95434.31;;;-2.23;93.77
52923;BME280;38796;42.702;23.306;2023-01-30T04:25:10;95431.03;;;-2.28;93.92
52923;BME280;38796;42.702;23.306;2023-01-30T04:27:08;95437.16;;;-2.30;94.12
52923;BME280;38796;42.702;23.306;2023-01-30T04:29:16;95439.84;;;-2.33;94.09
52923;BME280;38796;42.702;23.306;2023-01-30T04:31:18;95438.84;;;-2.29;93.54
52923;BME280;38796;42.702;23.306;2023-01-30T04:33:45;95441.41;;;-2.29;93.89
52923;BME280;38796;42.702;23.306;2023-01-30T04:35:50;95441.16;;;-2.22;94.07
52923;BME280;38796;42.702;23.306;2023-01-30T04:37:49;95438.25;;;-2.12;93.30
52923;BME280;38796;42.702;23.306;2023-01-30T04:39:50;95431.66;;;-2.21;93.91
52923;BME280;38796;42.702;23.306;2023-01-30T04:41:48;95432.69;;;-2.25;94.02
52923;BME280;38796;42.702;23.306;2023-01-30T04:43:47;95436.09;;;-2.25;94.32
52923;BME280;38796;42.702;23.306;2023-01-30T04:45:58;95433.47;;;-2.23;94.61
52923;BME280;38796;42.702;23.306;2023-01-30T04:47:56;95432.78;;;-2.28;94.88
52923;BME280;38796;42.702;23.306;2023-01-30T04:49:54;95424.94;;;-2.25;94.77
52923;BME280;38796;42.702;23.306;2023-01-30T04:51:53;95426.63;;;-2.24;94.71
52923;BME280;38796;42.702;23.306;2023-01-30T04:53:51;95413.19;;;-2.09;94.88
52923;BME280;38796;42.702;23.306;2023-01-30T04:55:51;95409.34;;;-1.99;93.46
52923;BME280;38796;42.702;23.306;2023-01-30T04:57:50;95415.16;;;-2.15;93.68
52923;BME280;38796;42.702;23.306;2023-01-30T04:59:48;95416.16;;;-2.20;94.57
52923;BME280;38796;42.702;23.306;2023-01-30T05:01:47;95414.44;;;-2.21;94.26
52923;BME280;38796;42.702;23.306;2023-01-30T05:03:48;95412.59;;;-2.17;94.25
52923;BME280;38796;42.702;23.306;2023-01-30T05:05:47;95414.06;;;-2.10;94.21
52923;BME280;38796;42.702;23.306;2023-01-30T05:07:46;95408.75;;;-2.05;93.35
52923;BME280;38796;42.702;23.306;2023-01-30T05:09:44;95409.72;;;-2.08;93.82
52923;BME280;38796;42.702;23.306;2023-01-30T05:11:44;95407.16;;;-2.09;94.08
52923;BME280;38796;42.702;23.306;2023-01-30T05:13:43;95415.91;;;-2.13;94.09
52923;BME280;38796;42.702;23.306;2023-01-30T05:15:43;95415.19;;;-2.17;94.50
52923;BME280;38796;42.702;23.306;2023-01-30T05:17:42;95411.84;;;-2.19;95.29
52923;BME280;38796;42.702;23.306;2023-01-30T05:19:40;95412.78;;;-2.22;95.17
52923;BME280;38796;42.702;23.306;2023-01-30T05:21:41;95415.63;;;-2.29;95.93
52923;BME280;38796;42.702;23.306;2023-01-30T05:23:39;95417.25;;;-2.27;96.14
52923;BME280;38796;42.702;23.306;2023-01-30T05:25:38;95418.88;;;-2.24;97.16
52923;BME280;38796;42.702;23.306;2023-01-30T05:27:37;95423.25;;;-2.26;96.84
52923;BME280;38796;42.702;23.306;2023-01-30T05:29:36;95419.88;;;-2.28;97.56
52923;BME280;38796;42.702;23.306;2023-01-30T05:31:34;95419.97;;;-2.31;96.92
52923;BME280;38796;42.702;23.306;2023-01-30T05:33:34;95425.03;;;-2.28;97.66
52923;BME280;38796;42.702;23.306;2023-01-30T05:35:32;95424.03;;;-2.24;97.66
52923;BME280;38796;42.702;23.306;2023-01-30T05:37:31;95422.41;;;-2.27;97.96
52923;BME280;38796;42.702;23.306;2023-01-30T05:39:29;95423.09;;;-2.22;98.13
52923;BME280;38796;42.702;23.306;2023-01-30T05:41:27;95425.75;;;-2.23;98.00
52923;BME280;38796;42.702;23.306;2023-01-30T05:43:27;95426.69;;;-2.26;97.73
52923;BME280;38796;42.702;23.306;2023-01-30T05:45:25;95431.09;;;-2.29;98.11
52923;BME280;38796;42.702;23.306;2023-01-30T05:47:23;95424.94;;;-2.25;98.21
52923;BME280;38796;42.702;23.306;2023-01-30T05:49:21;95421.72;;;-2.32;98.59
52923;BME280;38796;42.702;23.306;2023-01-30T05:51:21;95428.63;;;-2.32;98.72
52923;BME280;38796;42.702;23.306;2023-01-30T05:53:21;95424.28;;;-2.30;99.06
52923;BME280;38796;42.702;23.306;2023-01-30T05:55:20;95428.56;;;-2.31;99.52
52923;BME280;38796;42.702;23.306;2023-01-30T05:57:18;95433.69;;;-2.29;99.40
52923;BME280;38796;42.702;23.306;2023-01-30T05:59:19;95426.63;;;-2.24;99.11
52923;BME280;38796;42.702;23.306;2023-01-30T06:01:17;95436.19;;;-2.28;98.69
52923;BME280;38796;42.702;23.306;2023-01-30T06:03:15;95431.09;;;-2.29;98.39
52923;BME280;38796;42.702;23.306;2023-01-30T06:05:14;95441.63;;;-2.35;97.97
52923;BME280;38796;42.702;23.306;2023-01-30T06:07:13;95438.16;;;-2.34;98.45
52923;BME280;38796;42.702;23.306;2023-01-30T06:09:11;95443.53;;;-2.40;98.46
52923;BME280;38796;42.702;23.306;2023-01-30T06:11:12;95429.81;;;-2.43;99.33
52923;BME280;38796;42.702;23.306;2023-01-30T06:13:11;95426.97;;;-2.35;99.12
52923;BME280;38796;42.702;23.306;2023-01-30T06:15:11;95434.69;;;-2.33;99.68
52923;BME280;38796;42.702;23.306;2023-01-30T06:17:09;95433.97;;;-2.38;98.91
52923;BME280;38796;42.702;23.306;2023-01-30T06:19:07;95433.31;;;-2.44;99.06
52923;BME280;38796;42.702;23.306;2023-01-30T06:21:06;95434.22;;;-2.45;99.48
52923;BME280;38796;42.702;23.306;2023-01-30T06:23:05;95434.22;;;-2.45;99.89
52923;BME280;38796;42.702;23.306;2023-01-30T06:25:04;95419.59;;;-2.44;99.51
52923;BME280;38796;42.702;23.306;2023-01-30T06:27:02;95423.66;;;-2.38;99.86
52923;BME280;38796;42.702;23.306;2023-01-30T06:29:00;95416.72;;;-2.36;99.80
52923;BME280;38796;42.702;23.306;2023-01-30T06:31:00;95420.34;;;-2.17;100.00
52923;BME280;38796;42.702;23.306;2023-01-30T06:32:59;95421.91;;;-2.13;99.33
52923;BME280;38796;42.702;23.306;2023-01-30T06:34:57;95426.56;;;-2.23;99.42
52923;BME280;38796;42.702;23.306;2023-01-30T06:36:56;95428.41;;;-2.26;99.65
52923;BME280;38796;42.702;23.306;2023-01-30T06:38:54;95426.03;;;-2.32;98.82
52923;BME280;38796;42.702;23.306;2023-01-30T06:40:53;95425.09;;;-2.30;99.75
52923;BME280;38796;42.702;23.306;2023-01-30T06:42:54;95431.03;;;-2.28;99.64
52923;BME280;38796;42.702;23.306;2023-01-30T06:44:53;95431.94;;;-2.29;98.77
52923;BME280;38796;42.702;23.306;2023-01-30T06:46:53;95425.75;;;-2.23;99.02
52923;BME280;38796;42.702;23.306;2023-01-30T06:48:51;95433.94;;;-2.12;98.04
52923;BME280;38796;42.702;23.306;2023-01-30T06:50:50;95438.09;;;-2.08;98.08
52923;BME280;38796;42.702;23.306;2023-01-30T06:52:49;95424.25;;;-2.05;97.58
52923;BME280;38796;42.702;23.306;2023-01-30T06:54:48;95432.47;;;-2.19;97.26
52923;BME280;38796;42.702;23.306;2023-01-30T06:56:46;95431.84;;;-2.26;98.17
52923;BME280;38796;42.702;23.306;2023-01-30T06:58:45;95439.00;;;-2.34;98.41
52923;BME280;38796;42.702;23.306;2023-01-30T07:00:43;95435.63;;;-2.36;98.72
52923;BME280;38796;42.702;23.306;2023-01-30T07:02:43;95436.34;;;-2.32;98.84
52923;BME280;38796;42.702;23.306;2023-01-30T07:04:42;95439.78;;;-2.32;98.22
52923;BME280;38796;42.702;23.306;2023-01-30T07:06:40;95437.03;;;-2.27;99.06
52923;BME280;38796;42.702;23.306;2023-01-30T07:08:38;95437.84;;;-2.25;98.95
52923;BME280;38796;42.702;23.306;2023-01-30T07:10:38;95443.63;;;-2.19;98.34
52923;BME280;38796;42.702;23.306;2023-01-30T07:12:36;95447.94;;;-2.19;98.11
52923;BME280;38796;42.702;23.306;2023-01-30T07:14:34;95454.03;;;-2.22;98.25
52923;BME280;38796;42.702;23.306;2023-01-30T07:16:33;95444.56;;;-2.21;98.15
52923;BME280;38796;42.702;23.306;2023-01-30T07:18:33;95441.94;;;-2.20;98.33
52923;BME280;38796;42.702;23.306;2023-01-30T07:34:43;95454.13;;;-2.00;96.09
52923;BME280;38796;42.702;23.306;2023-01-30T07:36:42;95461.09;;;-2.02;96.13
52923;BME280;38796;42.702;23.306;2023-01-30T07:38:40;95454.13;;;-2.00;95.53
52923;BME280;38796;42.702;23.306;2023-01-30T07:40:38;95459.09;;;-1.94;95.60
52923;BME280;38796;42.702;23.306;2023-01-30T07:42:37;95459.81;;;-1.90;95.02
52923;BME280;38796;42.702;23.306;2023-01-30T07:44:35;95456.22;;;-1.86;95.53
52923;BME280;38796;42.702;23.306;2023-01-30T07:46:33;95460.44;;;-1.83;94.69
52923;BME280;38796;42.702;23.306;2023-01-30T07:48:31;95456.13;;;-1.83;95.08
52923;BME280;38796;42.702;23.306;2023-01-30T07:50:31;95459.84;;;-1.91;94.14
52923;BME280;38796;42.702;23.306;2023-01-30T07:52:29;95460.75;;;-1.92;94.39
52923;BME280;38796;42.702;23.306;2023-01-30T07:54:28;95447.81;;;-1.91;94.40
52923;BME280;38796;42.702;23.306;2023-01-30T07:56:27;95444.34;;;-1.90;94.86
52923;BME280;38796;42.702;23.306;2023-01-30T07:58:25;95441.63;;;-1.87;94.02
52923;BME280;38796;42.702;23.306;2023-01-30T08:00:26;95442.38;;;-1.83;94.78
52923;BME280;38796;42.702;23.306;2023-01-30T08:02:25;95441.25;;;-1.76;94.37
52923;BME280;38796;42.702;23.306;2023-01-30T08:04:23;95436.31;;;-1.82;94.02
52923;BME280;38796;42.702;23.306;2023-01-30T08:06:23;95431.34;;;-1.88;94.01
52923;BME280;38796;42.702;23.306;2023-01-30T08:08:22;95434.53;;;-1.80;93.97
52923;BME280;38796;42.702;23.306;2023-01-30T08:10:20;95432.38;;;-1.69;94.39
52923;BME280;38796;42.702;23.306;2023-01-30T08:12:18;95424.75;;;-1.72;93.73
52923;BME280;38796;42.702;23.306;2023-01-30T08:14:16;95427.66;;;-1.81;93.94
52923;BME280;38796;42.702;23.306;2023-01-30T08:16:14;95426.09;;;-1.85;94.45
52923;BME280;38796;42.702;23.306;2023-01-30T08:18:13;95421.63;;;-1.80;94.59
52923;BME280;38796;42.702;23.306;2023-01-30T08:20:12;95425.03;;;-1.80;94.82
52923;BME280;38796;42.702;23.306;2023-01-30T08:22:14;95419.69;;;-1.75;94.57
52923;BME280;38796;42.702;23.306;2023-01-30T08:24:13;95420.63;;;-1.78;94.36
52923;BME280;38796;42.702;23.306;2023-01-30T08:26:11;95410.13;;;-1.73;94.88
52923;BME280;38796;42.702;23.306;2023-01-30T08:28:09;95413.63;;;-1.74;94.28
52923;BME280;38796;42.702;23.306;2023-01-30T08:30:09;95416.00;;;-1.68;93.95
52923;BME280;38796;42.702;23.306;2023-01-30T08:32:07;95417.47;;;-1.62;92.50
52923;BME280;38796;42.702;23.306;2023-01-30T08:34:06;95410.84;;;-1.46;91.37
52923;BME280;38796;42.702;23.306;2023-01-30T08:36:05;95413.50;;;-1.48;91.46
52923;BME280;38796;42.702;23.306;2023-01-30T08:38:06;95406.63;;;-1.49;92.27
52923;BME280;38796;42.702;23.306;2023-01-30T08:40:06;95408.34;;;-1.48;91.92
52923;BME280;38796;42.702;23.306;2023-01-30T08:42:04;95404.72;;;-1.43;92.90
52923;BME280;38796;42.702;23.306;2023-01-30T08:44:03;95405.47;;;-1.40;92.67
52923;BME280;38796;42.702;23.306;2023-01-30T08:46:01;95403.34;;;-1.30;92.07
52923;BME280;38796;42.702;23.306;2023-01-30T08:48:01;95407.25;;;-1.20;91.05
52923;BME280;38796;42.702;23.306;2023-01-30T08:50:00;95400.53;;;-1.24;90.79
52923;BME280;38796;42.702;23.306;2023-01-30T08:51:59;95401.53;;;-1.28;90.48
52923;BME280;38796;42.702;23.306;2023-01-30T08:53:58;95395.59;;;-1.30;90.50
52923;BME280;38796;42.702;23.306;2023-01-30T08:55:56;95397.09;;;-1.25;90.62
52923;BME280;38796;42.702;23.306;2023-01-30T08:57:55;95399.19;;;-1.34;90.05
52923;BME280;38796;42.702;23.306;2023-01-30T08:59:54;95392.47;;;-1.38;90.67
52923;BME280;38796;42.702;23.306;2023-01-30T09:01:52;95388.13;;;-1.38;90.58
52923;BME280;38796;42.702;23.306;2023-01-30T09:03:51;95385.84;;;-1.46;90.00
52923;BME280;38796;42.702;23.306;2023-01-30T09:05:53;95392.59;;;-1.41;90.13
52923;BME280;38796;42.702;23.306;2023-01-30T09:07:52;95385.09;;;-1.48;89.36
52923;BME280;38796;42.702;23.306;2023-01-30T09:09:51;95394.28;;;-1.40;89.54
52923;BME280;38796;42.702;23.306;2023-01-30T09:11:49;95383.16;;;-1.42;89.48
52923;BME280;38796;42.702;23.306;2023-01-30T09:13:48;95385.94;;;-1.47;89.33
52923;BME280;38796;42.702;23.306;2023-01-30T09:15:46;95380.16;;;-1.32;89.53
52923;BME280;38796;42.702;23.306;2023-01-30T09:17:44;95387.72;;;-1.27;88.98
52923;BME280;38796;42.702;23.306;2023-01-30T09:19:42;95379.44;;;-1.35;89.00
52923;BME280;38796;42.702;23.306;2023-01-30T09:21:41;95382.81;;;-1.33;88.88
52923;BME280;38796;42.702;23.306;2023-01-30T09:23:39;95372.59;;;-1.36;89.30
52923;BME280;38796;42.702;23.306;2023-01-30T09:25:39;95372.59;;;-1.36;89.72
52923;BME280;38796;42.702;23.306;2023-01-30T09:27:37;95370.84;;;-1.36;89.39
52923;BME280;38796;42.702;23.306;2023-01-30T09:29:40;95384.41;;;-1.31;89.32
52923;BME280;38796;42.702;23.306;2023-01-30T09:31:41;95376.66;;;-1.31;89.37
52923;BME280;38796;42.702;23.306;2023-01-30T09:33:39;95374.88;;;-1.29;89.01
52923;BME280;38796;42.702;23.306;2023-01-30T09:35:37;95385.25;;;-1.30;88.66
52923;BME280;38796;42.702;23.306;2023-01-30T09:37:36;95375.91;;;-1.33;89.26
52923;BME280;38796;42.702;23.306;2023-01-30T09:39:34;95372.34;;;-1.30;88.62
52923;BME280;38796;42.702;23.306;2023-01-30T09:41:51;95372.91;;;-1.22;89.43
52923;BME280;38796;42.702;23.306;2023-01-30T09:44:04;95365.16;;;-1.22;89.43
52923;BME280;38796;42.702;23.306;2023-01-30T09:46:16;95362.97;;;-0.90;88.67
52923;BME280;38796;42.702;23.306;2023-01-30T09:48:20;95361.69;;;-1.01;88.30
52923;BME280;38796;42.702;23.306;2023-01-30T09:50:46;95360.19;;;-1.06;88.48
52923;BME280;38796;42.702;23.306;2023-01-30T09:52:53;95363.59;;;-1.06;88.40
52923;BME280;38796;42.702;23.306;2023-01-30T09:54:58;95360.66;;;-0.97;88.39
52923;BME280;38796;42.702;23.306;2023-01-30T09:57:10;95355.03;;;-1.06;87.93
52923;BME280;38796;42.702;23.306;2023-01-30T09:59:22;95349.66;;;-1.02;88.40
52923;BME280;38796;42.702;23.306;2023-01-30T10:01:26;95354.44;;;-1.13;88.44
52923;BME280;38796;42.702;23.306;2023-01-30T10:03:32;95345.13;;;-1.17;88.08
52923;BME280;38796;42.702;23.306;2023-01-30T10:05:38;95344.34;;;-1.19;88.21
52923;BME280;38796;42.702;23.306;2023-01-30T10:07:48;95345.50;;;-1.26;88.85
52923;BME280;38796;42.702;23.306;2023-01-30T10:09:57;95339.53;;;-1.28;88.87
52923;BME280;38796;42.702;23.306;2023-01-30T10:12:05;95335.81;;;-1.21;88.89
52923;BME280;38796;42.702;23.306;2023-01-30T10:14:19;95327.16;;;-1.20;88.26
52923;BME280;38796;42.702;23.306;2023-01-30T10:16:27;95325.28;;;-1.16;87.44
52923;BME280;38796;42.702;23.306;2023-01-30T10:18:38;95313.47;;;-1.22;87.03
52923;BME280;38796;42.702;23.306;2023-01-30T10:20:46;95316.28;;;-1.28;87.09
52923;BME280;38796;42.702;23.306;2023-01-30T10:22:56;95310.09;;;-1.24;87.12
52923;BME280;38796;42.702;23.306;2023-01-30T10:25:06;95307.75;;;-1.30;86.34
52923;BME280;38796;42.702;23.306;2023-01-30T10:27:11;95300.88;;;-1.30;86.24
52923;BME280;38796;42.702;23.306;2023-01-30T10:29:16;95304.56;;;-1.15;86.41
52923;BME280;38796;42.702;23.306;2023-01-30T10:31:18;95297.44;;;-1.10;85.43
52923;BME280;38796;42.702;23.306;2023-01-30T10:33:21;95285.81;;;-1.20;85.25
52923;BME280;38796;42.702;23.306;2023-01-30T10:35:22;95294.22;;;-1.15;85.42
52923;BME280;38796;42.702;23.306;2023-01-30T10:37:28;95291.69;;;-1.16;85.51
52923;BME280;38796;42.702;23.306;2023-01-30T10:39:32;95276.66;;;-1.07;84.57
52923;BME280;38796;42.702;23.306;2023-01-30T10:41:40;95270.91;;;-0.93;84.42
52923;BME280;38796;42.702;23.306;2023-01-30T10:43:44;95263.91;;;-0.91;84.18
52923;BME280;38796;42.702;23.306;2023-01-30T10:45:51;95261.53;;;-0.95;83.96
52923;BME280;38796;42.702;23.306;2023-01-30T10:48:00;95257.97;;;-0.93;83.88
52923;BME280;38796;42.702;23.306;2023-01-30T10:50:13;95258.03;;;-0.94;83.33
52923;BME280;38796;42.702;23.306;2023-01-30T10:52:26;95252.59;;;-1.09;83.27
52923;BME280;38796;42.702;23.306;2023-01-30T10:54:34;95253.06;;;-0.99;83.29